sensor_id;sensor_type;location;lat;lon;timestamp;temperature;humidity
54264;DHT22;40178;53.042;6.406;2023-09-19T00:02:03;13.30;99.90
54264;DHT22;40178;53.042;6.406;2023-09-19T00:04:35;13.20;99.90
54264;DHT22;40178;53.042;6.406;2023-09-19T00:07:00;13.10;99.90
54264;DHT22;40178;53.042;6.406;2023-09-19T00:09:28;13.10;99.90
54264;DHT22;40178;53.042;6.406;2023-09-19T00:11:53;13.10;99.90
54264;DHT22;40178;53.042;6.406;2023-09-19T00:14:19;13.00;99.90
54264;DHT22;40178;53.042;6.406;2023-09-19T00:16:45;12.90;99.90
54264;DHT22;40178;53.042;6.406;2023-09-19T00:19:11;12.90;99.90
54264;DHT22;40178;53.042;6.406;2023-09-19T00:21:38;12.90;99.90
54264;DHT22;40178;53.042;6.406;2023-09-19T00:24:04;12.90;99.90
54264;DHT22;40178;53.042;6.406;2023-09-19T00:26:32;12.80;99.90
54264;DHT22;40178;53.042;6.406;2023-09-19T00:28:57;12.90;99.90
54264;DHT22;40178;53.042;6.406;2023-09-19T00:31:25;12.80;99.90
54264;DHT22;40178;53.042;6.406;2023-09-19T00:33:50;12.70;99.90
54264;DHT22;40178;53.042;6.406;2023-09-19T00:36:17;12.70;99.90
54264;DHT22;40178;53.042;6.406;2023-09-19T00:38:43;12.70;99.90
54264;DHT22;40178;53.042;6.406;2023-09-19T00:41:11;12.70;99.90
54264;DHT22;40178;53.042;6.406;2023-09-19T00:43:38;12.70;99.90
54264;DHT22;40178;53.042;6.406;2023-09-19T00:46:06;12.70;99.90
54264;DHT22;40178;53.042;6.406;2023-09-19T00:48:39;12.70;99.90
54264;DHT22;40178;53.042;6.406;2023-09-19T00:51:06;12.70;99.90
54264;DHT22;40178;53.042;6.406;2023-09-19T00:53:32;12.60;99.90
54264;DHT22;40178;53.042;6.406;2023-09-19T00:55:59;12.60;99.90
54264;DHT22;40178;53.042;6.406;2023-09-19T00:58:25;12.60;99.90
54264;DHT22;40178;53.042;6.406;2023-09-19T01:00:51;12.60;99.90
54264;DHT22;40178;53.042;6.406;2023-09-19T01:03:18;12.40;99.90
54264;DHT22;40178;53.042;6.406;2023-09-19T01:05:44;12.50;99.90
54264;DHT22;40178;53.042;6.406;2023-09-19T01:08:10;12.60;99.90
54264;DHT22;40178;53.042;6.406;2023-09-19T01:10:58;12.50;99.90
54264;DHT22;40178;53.042;6.406;2023-09-19T01:18:46;12.50;99.90
54264;DHT22;40178;53.042;6.406;2023-09-19T01:21:29;12.40;99.90
54264;DHT22;40178;53.042;6.406;2023-09-19T01:24:22;12.40;99.90
54264;DHT22;40178;53.042;6.406;2023-09-19T01:29:39;12.30;99.90
54264;DHT22;40178;53.042;6.406;2023-09-19T01:32:08;12.20;99.90
54264;DHT22;40178;53.042;6.406;2023-09-19T01:34:44;12.20;99.90
54264;DHT22;40178;53.042;6.406;2023-09-19T01:37:15;12.10;99.90
54264;DHT22;40178;53.042;6.406;2023-09-19T01:39:50;11.90;99.90
54264;DHT22;40178;53.042;6.406;2023-09-19T01:45:11;12.00;99.90
54264;DHT22;40178;53.042;6.406;2023-09-19T01:48:01;12.00;99.90
54264;DHT22;40178;53.042;6.406;2023-09-19T01:50:44;12.00;99.90
54264;DHT22;40178;53.042;6.406;2023-09-19T01:53:23;11.90;99.90
54264;DHT22;40178;53.042;6.406;2023-09-19T01:55:51;11.80;99.90
54264;DHT22;40178;53.042;6.406;2023-09-19T01:58:43;11.80;99.90
54264;DHT22;40178;53.042;6.406;2023-09-19T02:01:12;11.80;99.90
54264;DHT22;40178;53.042;6.406;2023-09-19T02:03:40;11.80;99.90
54264;DHT22;40178;53.042;6.406;2023-09-19T02:06:06;11.70;99.90
54264;DHT22;40178;53.042;6.406;2023-09-19T02:08:37;11.70;99.90
54264;DHT22;40178;53.042;6.406;2023-09-19T02:11:02;11.50;99.90
54264;DHT22;40178;53.042;6.406;2023-09-19T02:13:28;11.60;99.90
54264;DHT22;40178;53.042;6.406;2023-09-19T02:15:57;11.50;99.90
54264;DHT22;40178;53.042;6.406;2023-09-19T02:18:23;11.50;99.90
54264;DHT22;40178;53.042;6.406;2023-09-19T02:20:48;11.50;99.90
54264;DHT22;40178;53.042;6.406;2023-09-19T02:23:14;11.40;99.90
54264;DHT22;40178;53.042;6.406;2023-09-19T02:25:41;11.40;99.90
54264;DHT22;40178;53.042;6.406;2023-09-19T02:28:09;11.40;99.90
54264;DHT22;40178;53.042;6.406;2023-09-19T02:30:35;11.40;99.90
54264;DHT22;40178;53.042;6.406;2023-09-19T02:33:01;11.30;99.90
54264;DHT22;40178;53.042;6.406;2023-09-19T02:35:27;11.30;99.90
54264;DHT22;40178;53.042;6.406;2023-09-19T02:37:53;11.30;99.90
54264;DHT22;40178;53.042;6.406;2023-09-19T02:40:19;11.30;99.90
54264;DHT22;40178;53.042;6.406;2023-09-19T02:42:49;11.30;99.90
54264;DHT22;40178;53.042;6.406;2023-09-19T02:45:18;11.30;99.90
54264;DHT22;40178;53.042;6.406;2023-09-19T02:47:47;11.30;99.90
54264;DHT22;40178;53.042;6.406;2023-09-19T02:50:14;11.30;99.90
54264;DHT22;40178;53.042;6.406;2023-09-19T02:52:42;11.40;99.90
54264;DHT22;40178;53.042;6.406;2023-09-19T02:55:16;11.40;99.90
54264;DHT22;40178;53.042;6.406;2023-09-19T02:57:53;11.40;99.90
54264;DHT22;40178;53.042;6.406;2023-09-19T03:00:22;11.60;99.90
54264;DHT22;40178;53.042;6.406;2023-09-19T03:02:53;11.60;99.90
54264;DHT22;40178;53.042;6.406;2023-09-19T03:05:19;11.60;99.90
54264;DHT22;40178;53.042;6.406;2023-09-19T03:07:47;11.70;99.90
54264;DHT22;40178;53.042;6.406;2023-09-19T03:10:19;11.70;99.90
54264;DHT22;40178;53.042;6.406;2023-09-19T03:12:46;11.70;99.90
54264;DHT22;40178;53.042;6.406;2023-09-19T03:15:12;11.60;99.90
54264;DHT22;40178;53.042;6.406;2023-09-19T03:17:37;11.70;99.90
54264;DHT22;40178;53.042;6.406;2023-09-19T03:20:04;11.60;99.90
54264;DHT22;40178;53.042;6.406;2023-09-19T03:22:30;11.60;99.90
54264;DHT22;40178;53.042;6.406;2023-09-19T03:24:55;11.60;99.90
54264;DHT22;40178;53.042;6.406;2023-09-19T03:27:21;11.60;99.90
54264;DHT22;40178;53.042;6.406;2023-09-19T03:29:47;11.50;99.90
54264;DHT22;40178;53.042;6.406;2023-09-19T03:32:13;11.60;99.90
54264;DHT22;40178;53.042;6.406;2023-09-19T03:34:39;11.60;99.90
54264;DHT22;40178;53.042;6.406;2023-09-19T03:37:11;11.60;99.90
54264;DHT22;40178;53.042;6.406;2023-09-19T03:39:37;11.70;99.90
54264;DHT22;40178;53.042;6.406;2023-09-19T03:42:03;11.70;99.90
54264;DHT22;40178;53.042;6.406;2023-09-19T03:44:33;11.70;99.90
54264;DHT22;40178;53.042;6.406;2023-09-19T03:46:58;11.70;99.90
54264;DHT22;40178;53.042;6.406;2023-09-19T03:49:24;11.70;99.90
54264;DHT22;40178;53.042;6.406;2023-09-19T03:51:50;11.80;99.90
54264;DHT22;40178;53.042;6.406;2023-09-19T03:54:15;11.90;99.90
54264;DHT22;40178;53.042;6.406;2023-09-19T03:56:42;11.90;99.90
54264;DHT22;40178;53.042;6.406;2023-09-19T03:59:09;12.00;99.90
54264;DHT22;40178;53.042;6.406;2023-09-19T04:01:35;12.00;99.90
54264;DHT22;40178;53.042;6.406;2023-09-19T04:04:00;12.00;99.90
54264;DHT22;40178;53.042;6.406;2023-09-19T04:06:34;12.10;99.90
54264;DHT22;40178;53.042;6.406;2023-09-19T04:09:01;12.10;99.90
54264;DHT22;40178;53.042;6.406;2023-09-19T04:11:27;12.10;99.90
54264;DHT22;40178;53.042;6.406;2023-09-19T04:13:52;12.20;99.90
54264;DHT22;40178;53.042;6.406;2023-09-19T04:16:18;12.20;99.90
54264;DHT22;40178;53.042;6.406;2023-09-19T04:18:45;12.30;99.90
54264;DHT22;40178;53.042;6.406;2023-09-19T04:21:10;12.20;99.90
54264;DHT22;40178;53.042;6.406;2023-09-19T04:23:36;12.30;99.90
54264;DHT22;40178;53.042;6.406;2023-09-19T04:26:02;12.40;99.90
54264;DHT22;40178;53.042;6.406;2023-09-19T04:28:31;12.30;99.90
54264;DHT22;40178;53.042;6.406;2023-09-19T04:30:58;12.30;99.90
54264;DHT22;40178;53.042;6.406;2023-09-19T04:33:25;12.30;99.90
54264;DHT22;40178;53.042;6.406;2023-09-19T04:35:52;12.30;99.90
54264;DHT22;40178;53.042;6.406;2023-09-19T04:38:21;12.30;99.90
54264;DHT22;40178;53.042;6.406;2023-09-19T04:40:47;12.40;99.90
54264;DHT22;40178;53.042;6.406;2023-09-19T04:43:13;12.30;99.90
54264;DHT22;40178;53.042;6.406;2023-09-19T04:45:39;12.40;99.90
54264;DHT22;40178;53.042;6.406;2023-09-19T04:48:05;12.40;99.90
54264;DHT22;40178;53.042;6.406;2023-09-19T04:50:37;12.40;99.90
54264;DHT22;40178;53.042;6.406;2023-09-19T04:53:04;12.50;99.90
54264;DHT22;40178;53.042;6.406;2023-09-19T04:55:29;12.40;99.90
54264;DHT22;40178;53.042;6.406;2023-09-19T04:57:55;12.50;99.90
54264;DHT22;40178;53.042;6.406;2023-09-19T05:00:22;12.50;99.90
54264;DHT22;40178;53.042;6.406;2023-09-19T05:02:54;12.50;99.90
54264;DHT22;40178;53.042;6.406;2023-09-19T05:05:21;12.50;99.90
54264;DHT22;40178;53.042;6.406;2023-09-19T05:07:48;12.40;99.90
54264;DHT22;40178;53.042;6.406;2023-09-19T05:10:14;12.40;99.90
54264;DHT22;40178;53.042;6.406;2023-09-19T05:12:40;12.40;99.90
54264;DHT22;40178;53.042;6.406;2023-09-19T05:15:07;12.40;99.90
54264;DHT22;40178;53.042;6.406;2023-09-19T05:17:34;12.30;99.90
54264;DHT22;40178;53.042;6.406;2023-09-19T05:20:00;12.40;99.90
54264;DHT22;40178;53.042;6.406;2023-09-19T05:22:37;12.40;99.90
54264;DHT22;40178;53.042;6.406;2023-09-19T05:25:05;12.40;99.90
54264;DHT22;40178;53.042;6.406;2023-09-19T05:27:31;12.30;99.90
54264;DHT22;40178;53.042;6.406;2023-09-19T05:29:57;12.40;99.90
54264;DHT22;40178;53.042;6.406;2023-09-19T05:32:22;12.40;99.90
54264;DHT22;40178;53.042;6.406;2023-09-19T05:34:49;12.30;99.90
54264;DHT22;40178;53.042;6.406;2023-09-19T05:37:18;12.30;99.90
54264;DHT22;40178;53.042;6.406;2023-09-19T05:39:44;12.50;99.90
54264;DHT22;40178;53.042;6.406;2023-09-19T05:42:09;12.30;99.90
54264;DHT22;40178;53.042;6.406;2023-09-19T05:44:35;12.30;99.90
54264;DHT22;40178;53.042;6.406;2023-09-19T05:47:02;12.40;99.90
54264;DHT22;40178;53.042;6.406;2023-09-19T05:49:28;12.40;99.90
54264;DHT22;40178;53.042;6.406;2023-09-19T05:51:53;12.40;99.90
54264;DHT22;40178;53.042;6.406;2023-09-19T05:54:20;12.50;99.90
54264;DHT22;40178;53.042;6.406;2023-09-19T05:56:46;12.50;99.90
54264;DHT22;40178;53.042;6.406;2023-09-19T05:59:12;12.50;99.90
54264;DHT22;40178;53.042;6.406;2023-09-19T06:01:44;12.50;99.90
54264;DHT22;40178;53.042;6.406;2023-09-19T06:04:10;12.50;99.90
54264;DHT22;40178;53.042;6.406;2023-09-19T06:06:36;12.50;99.90
54264;DHT22;40178;53.042;6.406;2023-09-19T06:09:04;12.50;99.90
54264;DHT22;40178;53.042;6.406;2023-09-19T06:11:35;12.60;99.90
54264;DHT22;40178;53.042;6.406;2023-09-19T06:14:02;12.60;99.90
54264;DHT22;40178;53.042;6.406;2023-09-19T06:16:28;12.60;99.90
54264;DHT22;40178;53.042;6.406;2023-09-19T06:18:54;12.60;99.90
54264;DHT22;40178;53.042;6.406;2023-09-19T06:21:22;12.70;99.90
54264;DHT22;40178;53.042;6.406;2023-09-19T06:23:48;12.80;99.90
54264;DHT22;40178;53.042;6.406;2023-09-19T06:26:13;12.80;99.90
54264;DHT22;40178;53.042;6.406;2023-09-19T06:28:40;12.80;99.90
54264;DHT22;40178;53.042;6.406;2023-09-19T06:31:06;12.90;99.90
54264;DHT22;40178;53.042;6.406;2023-09-19T06:33:38;13.00;99.90
54264;DHT22;40178;53.042;6.406;2023-09-19T06:36:07;13.00;99.90
54264;DHT22;40178;53.042;6.406;2023-09-19T06:38:33;13.00;99.90
54264;DHT22;40178;53.042;6.406;2023-09-19T06:41:02;13.00;99.90
54264;DHT22;40178;53.042;6.406;2023-09-19T06:43:32;13.00;99.90
54264;DHT22;40178;53.042;6.406;2023-09-19T06:46:02;13.10;99.90
54264;DHT22;40178;53.042;6.406;2023-09-19T06:48:28;13.10;99.90
54264;DHT22;40178;53.042;6.406;2023-09-19T06:50:58;13.20;99.90
54264;DHT22;40178;53.042;6.406;2023-09-19T06:53:28;13.30;99.90
54264;DHT22;40178;53.042;6.406;2023-09-19T06:55:57;13.40;99.90
54264;DHT22;40178;53.042;6.406;2023-09-19T06:58:23;13.50;99.90
54264;DHT22;40178;53.042;6.406;2023-09-19T07:00:48;13.50;99.90
54264;DHT22;40178;53.042;6.406;2023-09-19T07:03:15;13.60;99.90
54264;DHT22;40178;53.042;6.406;2023-09-19T07:05:44;13.60;99.90
54264;DHT22;40178;53.042;6.406;2023-09-19T07:08:10;13.60;99.90
54264;DHT22;40178;53.042;6.406;2023-09-19T07:10:38;13.60;99.90
54264;DHT22;40178;53.042;6.406;2023-09-19T07:13:07;13.70;99.90
54264;DHT22;40178;53.042;6.406;2023-09-19T07:15:37;13.80;99.90
54264;DHT22;40178;53.042;6.406;2023-09-19T07:18:15;13.90;99.90
54264;DHT22;40178;53.042;6.406;2023-09-19T07:20:43;13.90;99.90
54264;DHT22;40178;53.042;6.406;2023-09-19T07:23:21;14.10;99.90
54264;DHT22;40178;53.042;6.406;2023-09-19T07:25:48;14.20;99.90
54264;DHT22;40178;53.042;6.406;2023-09-19T07:28:15;14.20;99.90
54264;DHT22;40178;53.042;6.406;2023-09-19T07:30:41;14.00;99.90
54264;DHT22;40178;53.042;6.406;2023-09-19T07:33:07;14.10;99.90
54264;DHT22;40178;53.042;6.406;2023-09-19T07:35:35;14.00;99.90
54264;DHT22;40178;53.042;6.406;2023-09-19T07:38:01;14.00;99.90
54264;DHT22;40178;53.042;6.406;2023-09-19T07:40:27;13.90;99.90
54264;DHT22;40178;53.042;6.406;2023-09-19T07:42:57;14.00;99.90
54264;DHT22;40178;53.042;6.406;2023-09-19T07:45:30;14.10;99.90
54264;DHT22;40178;53.042;6.406;2023-09-19T07:47:55;14.20;99.90
54264;DHT22;40178;53.042;6.406;2023-09-19T07:50:21;14.30;99.90
54264;DHT22;40178;53.042;6.406;2023-09-19T07:52:48;14.50;99.90
54264;DHT22;40178;53.042;6.406;2023-09-19T07:55:16;14.60;99.90
54264;DHT22;40178;53.042;6.406;2023-09-19T07:57:43;14.90;99.90
54264;DHT22;40178;53.042;6.406;2023-09-19T08:00:09;14.90;99.90
54264;DHT22;40178;53.042;6.406;2023-09-19T08:02:39;15.10;99.90
54264;DHT22;40178;53.042;6.406;2023-09-19T08:05:06;15.10;99.90
54264;DHT22;40178;53.042;6.406;2023-09-19T08:07:36;15.10;99.90
54264;DHT22;40178;53.042;6.406;2023-09-19T08:10:03;15.10;99.90
54264;DHT22;40178;53.042;6.406;2023-09-19T08:12:29;15.10;99.90
54264;DHT22;40178;53.042;6.406;2023-09-19T08:14:55;15.10;99.90
54264;DHT22;40178;53.042;6.406;2023-09-19T08:17:21;15.20;99.90
54264;DHT22;40178;53.042;6.406;2023-09-19T08:19:49;15.20;99.90
54264;DHT22;40178;53.042;6.406;2023-09-19T08:22:19;15.30;99.90
54264;DHT22;40178;53.042;6.406;2023-09-19T08:24:44;15.20;99.90
54264;DHT22;40178;53.042;6.406;2023-09-19T08:27:10;15.30;99.90
54264;DHT22;40178;53.042;6.406;2023-09-19T08:29:38;15.30;99.90
54264;DHT22;40178;53.042;6.406;2023-09-19T08:32:04;15.30;99.90
54264;DHT22;40178;53.042;6.406;2023-09-19T08:34:30;15.40;99.90
54264;DHT22;40178;53.042;6.406;2023-09-19T08:36:58;15.50;99.90
54264;DHT22;40178;53.042;6.406;2023-09-19T08:39:24;15.50;99.90
54264;DHT22;40178;53.042;6.406;2023-09-19T08:41:57;15.50;99.90
54264;DHT22;40178;53.042;6.406;2023-09-19T08:44:24;15.50;99.90
54264;DHT22;40178;53.042;6.406;2023-09-19T08:46:59;15.50;99.90
54264;DHT22;40178;53.042;6.406;2023-09-19T08:49:39;15.50;99.90
54264;DHT22;40178;53.042;6.406;2023-09-19T08:52:24;15.50;99.90
54264;DHT22;40178;53.042;6.406;2023-09-19T08:54:58;15.50;99.90
54264;DHT22;40178;53.042;6.406;2023-09-19T08:57:29;15.50;99.90
54264;DHT22;40178;53.042;6.406;2023-09-19T08:59:57;15.60;99.90
54264;DHT22;40178;53.042;6.406;2023-09-19T09:02:23;15.70;99.90
54264;DHT22;40178;53.042;6.406;2023-09-19T09:04:50;15.70;99.90
54264;DHT22;40178;53.042;6.406;2023-09-19T09:07:17;15.70;99.90
54264;DHT22;40178;53.042;6.406;2023-09-19T09:09:44;15.70;99.90
54264;DHT22;40178;53.042;6.406;2023-09-19T09:12:14;15.70;99.90
54264;DHT22;40178;53.042;6.406;2023-09-19T09:14:44;15.70;99.90
54264;DHT22;40178;53.042;6.406;2023-09-19T09:17:10;15.80;99.90
54264;DHT22;40178;53.042;6.406;2023-09-19T09:19:37;15.80;99.90
54264;DHT22;40178;53.042;6.406;2023-09-19T09:22:10;15.90;99.90
54264;DHT22;40178;53.042;6.406;2023-09-19T09:24:37;15.90;99.90
54264;DHT22;40178;53.042;6.406;2023-09-19T09:27:05;16.00;99.90
54264;DHT22;40178;53.042;6.406;2023-09-19T09:29:47;16.30;99.90
54264;DHT22;40178;53.042;6.406;2023-09-19T09:32:24;16.40;99.90
54264;DHT22;40178;53.042;6.406;2023-09-19T09:34:57;16.50;99.90
54264;DHT22;40178;53.042;6.406;2023-09-19T09:37:24;16.70;99.90
54264;DHT22;40178;53.042;6.406;2023-09-19T09:39:58;16.70;99.90
54264;DHT22;40178;53.042;6.406;2023-09-19T09:42:38;16.80;99.90
54264;DHT22;40178;53.042;6.406;2023-09-19T09:45:22;16.80;99.90
54264;DHT22;40178;53.042;6.406;2023-09-19T09:48:14;17.00;99.90
54264;DHT22;40178;53.042;6.406;2023-09-19T09:50:47;17.10;99.90
54264;DHT22;40178;53.042;6.406;2023-09-19T09:58:28;17.30;99.90
54264;DHT22;40178;53.042;6.406;2023-09-19T10:00:58;17.30;99.90
54264;DHT22;40178;53.042;6.406;2023-09-19T10:03:41;17.20;99.80
54264;DHT22;40178;53.042;6.406;2023-09-19T10:06:14;17.20;99.90
54264;DHT22;40178;53.042;6.406;2023-09-19T10:09:06;17.10;98.80
54264;DHT22;40178;53.042;6.406;2023-09-19T10:11:45;17.20;99.60
54264;DHT22;40178;53.042;6.406;2023-09-19T10:14:17;17.20;99.90
54264;DHT22;40178;53.042;6.406;2023-09-19T10:16:49;17.30;99.90
54264;DHT22;40178;53.042;6.406;2023-09-19T10:19:29;17.50;99.90
54264;DHT22;40178;53.042;6.406;2023-09-19T10:21:56;17.50;99.90
54264;DHT22;40178;53.042;6.406;2023-09-19T10:24:25;17.70;98.80
54264;DHT22;40178;53.042;6.406;2023-09-19T10:26:53;17.50;98.60
54264;DHT22;40178;53.042;6.406;2023-09-19T10:29:21;17.60;96.70
54264;DHT22;40178;53.042;6.406;2023-09-19T10:31:48;17.70;93.90
54264;DHT22;40178;53.042;6.406;2023-09-19T10:34:17;17.70;93.60
54264;DHT22;40178;53.042;6.406;2023-09-19T10:36:46;17.80;90.40
54264;DHT22;40178;53.042;6.406;2023-09-19T10:39:15;17.80;90.70
54264;DHT22;40178;53.042;6.406;2023-09-19T10:41:54;17.80;91.40
54264;DHT22;40178;53.042;6.406;2023-09-19T10:44:24;17.60;92.20
54264;DHT22;40178;53.042;6.406;2023-09-19T10:46:51;17.80;96.10
54264;DHT22;40178;53.042;6.406;2023-09-19T10:49:19;17.90;96.60
54264;DHT22;40178;53.042;6.406;2023-09-19T10:51:45;17.90;93.30
54264;DHT22;40178;53.042;6.406;2023-09-19T10:54:16;18.00;88.00
54264;DHT22;40178;53.042;6.406;2023-09-19T10:56:46;17.90;86.20
54264;DHT22;40178;53.042;6.406;2023-09-19T10:59:15;17.80;91.50
54264;DHT22;40178;53.042;6.406;2023-09-19T11:01:45;17.70;90.90
54264;DHT22;40178;53.042;6.406;2023-09-19T11:04:32;17.70;89.70
54264;DHT22;40178;53.042;6.406;2023-09-19T11:07:04;17.70;91.70
54264;DHT22;40178;53.042;6.406;2023-09-19T11:15:07;17.70;85.10
54264;DHT22;40178;53.042;6.406;2023-09-19T11:17:43;17.50;77.40
54264;DHT22;40178;53.042;6.406;2023-09-19T11:20:21;17.50;92.30
54264;DHT22;40178;53.042;6.406;2023-09-19T11:28:27;17.50;82.40
54264;DHT22;40178;53.042;6.406;2023-09-19T11:30:53;17.80;84.90
54264;DHT22;40178;53.042;6.406;2023-09-19T11:33:30;17.90;73.80
54264;DHT22;40178;53.042;6.406;2023-09-19T11:36:07;17.90;83.10
54264;DHT22;40178;53.042;6.406;2023-09-19T11:43:52;18.10;89.10
54264;DHT22;40178;53.042;6.406;2023-09-19T11:46:20;18.10;90.90
54264;DHT22;40178;53.042;6.406;2023-09-19T11:48:50;18.20;88.90
54264;DHT22;40178;53.042;6.406;2023-09-19T11:53:48;18.10;90.00
54264;DHT22;40178;53.042;6.406;2023-09-19T11:56:16;18.00;90.00
54264;DHT22;40178;53.042;6.406;2023-09-19T11:58:44;17.80;86.00
54264;DHT22;40178;53.042;6.406;2023-09-19T12:01:13;17.70;85.90
54264;DHT22;40178;53.042;6.406;2023-09-19T12:03:46;17.60;88.30
54264;DHT22;40178;53.042;6.406;2023-09-19T12:06:14;17.60;89.10
54264;DHT22;40178;53.042;6.406;2023-09-19T12:08:42;17.60;84.10
54264;DHT22;40178;53.042;6.406;2023-09-19T12:11:12;17.50;88.70
54264;DHT22;40178;53.042;6.406;2023-09-19T12:13:45;17.50;90.80
54264;DHT22;40178;53.042;6.406;2023-09-19T12:16:13;17.30;90.70
54264;DHT22;40178;53.042;6.406;2023-09-19T12:18:41;17.30;86.30
54264;DHT22;40178;53.042;6.406;2023-09-19T12:21:29;17.30;91.70
54264;DHT22;40178;53.042;6.406;2023-09-19T12:24:04;17.30;90.80
54264;DHT22;40178;53.042;6.406;2023-09-19T12:26:43;17.30;92.30
54264;DHT22;40178;53.042;6.406;2023-09-19T12:29:31;17.30;94.00
54264;DHT22;40178;53.042;6.406;2023-09-19T12:31:58;17.40;91.70
54264;DHT22;40178;53.042;6.406;2023-09-19T12:34:26;17.60;95.20
54264;DHT22;40178;53.042;6.406;2023-09-19T12:37:15;17.70;91.60
54264;DHT22;40178;53.042;6.406;2023-09-19T12:39:46;18.00;90.00
54264;DHT22;40178;53.042;6.406;2023-09-19T12:42:15;18.00;87.30
54264;DHT22;40178;53.042;6.406;2023-09-19T12:44:43;18.00;85.70
54264;DHT22;40178;53.042;6.406;2023-09-19T12:47:14;18.00;91.80
54264;DHT22;40178;53.042;6.406;2023-09-19T12:50:16;18.10;90.50
54264;DHT22;40178;53.042;6.406;2023-09-19T12:52:52;17.90;78.30
54264;DHT22;40178;53.042;6.406;2023-09-19T13:00:56;17.50;84.20
54264;DHT22;40178;53.042;6.406;2023-09-19T13:05:57;17.50;91.30
54264;DHT22;40178;53.042;6.406;2023-09-19T13:08:31;17.50;91.20
54264;DHT22;40178;53.042;6.406;2023-09-19T13:11:18;17.60;89.80
54264;DHT22;40178;53.042;6.406;2023-09-19T13:14:13;17.50;86.20
54264;DHT22;40178;53.042;6.406;2023-09-19T13:17:07;17.60;90.10
54264;DHT22;40178;53.042;6.406;2023-09-19T13:19:47;17.50;85.60
54264;DHT22;40178;53.042;6.406;2023-09-19T13:22:43;17.50;90.20
54264;DHT22;40178;53.042;6.406;2023-09-19T13:25:20;17.50;91.00
54264;DHT22;40178;53.042;6.406;2023-09-19T13:27:48;17.40;91.70
54264;DHT22;40178;53.042;6.406;2023-09-19T13:30:16;17.40;92.00
54264;DHT22;40178;53.042;6.406;2023-09-19T13:32:42;17.40;94.70
54264;DHT22;40178;53.042;6.406;2023-09-19T13:35:09;17.40;94.40
54264;DHT22;40178;53.042;6.406;2023-09-19T13:37:36;17.40;94.60
54264;DHT22;40178;53.042;6.406;2023-09-19T13:40:07;17.30;96.00
54264;DHT22;40178;53.042;6.406;2023-09-19T13:42:33;17.20;99.90
54264;DHT22;40178;53.042;6.406;2023-09-19T13:44:59;17.10;99.90
54264;DHT22;40178;53.042;6.406;2023-09-19T13:47:25;16.90;99.90
54264;DHT22;40178;53.042;6.406;2023-09-19T13:49:52;16.90;99.90
54264;DHT22;40178;53.042;6.406;2023-09-19T13:52:21;17.00;99.90
54264;DHT22;40178;53.042;6.406;2023-09-19T13:54:51;17.20;99.90
54264;DHT22;40178;53.042;6.406;2023-09-19T13:57:18;17.40;99.90
54264;DHT22;40178;53.042;6.406;2023-09-19T13:59:44;17.50;99.90
54264;DHT22;40178;53.042;6.406;2023-09-19T14:02:09;17.60;99.20
54264;DHT22;40178;53.042;6.406;2023-09-19T14:04:35;17.60;98.20
54264;DHT22;40178;53.042;6.406;2023-09-19T14:07:01;17.60;98.00
54264;DHT22;40178;53.042;6.406;2023-09-19T14:09:27;17.60;98.10
54264;DHT22;40178;53.042;6.406;2023-09-19T14:11:53;17.70;98.20
54264;DHT22;40178;53.042;6.406;2023-09-19T14:14:19;17.50;94.60
54264;DHT22;40178;53.042;6.406;2023-09-19T14:16:46;17.60;94.40
54264;DHT22;40178;53.042;6.406;2023-09-19T14:19:12;17.60;95.80
54264;DHT22;40178;53.042;6.406;2023-09-19T14:21:39;17.70;96.40
54264;DHT22;40178;53.042;6.406;2023-09-19T14:24:05;17.70;95.70
54264;DHT22;40178;53.042;6.406;2023-09-19T14:26:38;17.70;94.30
54264;DHT22;40178;53.042;6.406;2023-09-19T14:29:04;17.80;91.80
54264;DHT22;40178;53.042;6.406;2023-09-19T14:31:33;17.80;92.50
54264;DHT22;40178;53.042;6.406;2023-09-19T14:33:59;17.80;91.70
54264;DHT22;40178;53.042;6.406;2023-09-19T14:36:25;17.90;89.50
54264;DHT22;40178;53.042;6.406;2023-09-19T14:38:55;17.90;91.40
54264;DHT22;40178;53.042;6.406;2023-09-19T14:41:22;17.90;89.40
54264;DHT22;40178;53.042;6.406;2023-09-19T14:43:49;17.90;90.30
54264;DHT22;40178;53.042;6.406;2023-09-19T14:46:14;17.90;90.80
54264;DHT22;40178;53.042;6.406;2023-09-19T14:48:41;17.90;89.90
54264;DHT22;40178;53.042;6.406;2023-09-19T14:51:08;17.80;86.00
54264;DHT22;40178;53.042;6.406;2023-09-19T14:53:37;17.80;92.30
54264;DHT22;40178;53.042;6.406;2023-09-19T14:56:04;17.80;92.90
54264;DHT22;40178;53.042;6.406;2023-09-19T14:58:31;17.70;92.30
54264;DHT22;40178;53.042;6.406;2023-09-19T15:01:08;17.70;92.90
54264;DHT22;40178;53.042;6.406;2023-09-19T15:03:34;17.60;94.80
54264;DHT22;40178;53.042;6.406;2023-09-19T15:06:08;17.60;95.40
54264;DHT22;40178;53.042;6.406;2023-09-19T15:08:36;17.60;95.80
54264;DHT22;40178;53.042;6.406;2023-09-19T15:11:07;17.60;96.30
54264;DHT22;40178;53.042;6.406;2023-09-19T15:13:33;17.50;97.20
54264;DHT22;40178;53.042;6.406;2023-09-19T15:16:04;17.40;99.90
54264;DHT22;40178;53.042;6.406;2023-09-19T15:18:30;17.20;99.90
54264;DHT22;40178;53.042;6.406;2023-09-19T15:21:00;17.00;99.90
54264;DHT22;40178;53.042;6.406;2023-09-19T15:23:26;16.80;99.90
54264;DHT22;40178;53.042;6.406;2023-09-19T15:25:51;16.80;99.90
54264;DHT22;40178;53.042;6.406;2023-09-19T15:28:18;16.70;99.90
54264;DHT22;40178;53.042;6.406;2023-09-19T15:30:44;16.80;99.90
54264;DHT22;40178;53.042;6.406;2023-09-19T15:33:10;16.90;99.90
54264;DHT22;40178;53.042;6.406;2023-09-19T15:35:36;16.80;99.90
54264;DHT22;40178;53.042;6.406;2023-09-19T15:38:03;16.80;99.90
54264;DHT22;40178;53.042;6.406;2023-09-19T15:40:29;16.80;99.90
54264;DHT22;40178;53.042;6.406;2023-09-19T15:42:55;16.80;99.90
54264;DHT22;40178;53.042;6.406;2023-09-19T15:45:23;16.70;99.90
54264;DHT22;40178;53.042;6.406;2023-09-19T15:47:48;16.70;99.90
54264;DHT22;40178;53.042;6.406;2023-09-19T15:50:14;16.70;99.90
54264;DHT22;40178;53.042;6.406;2023-09-19T15:52:41;16.70;99.90
54264;DHT22;40178;53.042;6.406;2023-09-19T15:55:07;16.60;99.90
54264;DHT22;40178;53.042;6.406;2023-09-19T15:57:37;16.60;99.90
54264;DHT22;40178;53.042;6.406;2023-09-19T16:00:05;16.50;99.90
54264;DHT22;40178;53.042;6.406;2023-09-19T16:02:36;16.40;99.90
54264;DHT22;40178;53.042;6.406;2023-09-19T16:05:01;16.40;99.90
54264;DHT22;40178;53.042;6.406;2023-09-19T16:07:32;16.30;99.90
54264;DHT22;40178;53.042;6.406;2023-09-19T16:09:59;16.30;99.90
54264;DHT22;40178;53.042;6.406;2023-09-19T16:12:25;16.10;99.90
54264;DHT22;40178;53.042;6.406;2023-09-19T16:14:51;16.10;99.90
54264;DHT22;40178;53.042;6.406;2023-09-19T16:17:17;16.10;99.90
54264;DHT22;40178;53.042;6.406;2023-09-19T16:19:43;16.20;99.90
54264;DHT22;40178;53.042;6.406;2023-09-19T16:22:09;16.00;99.90
54264;DHT22;40178;53.042;6.406;2023-09-19T16:24:35;16.00;99.90
54264;DHT22;40178;53.042;6.406;2023-09-19T16:27:01;16.00;99.90